Charlotte — SFB2936 — position and weather

sailwx.info

Track history (hours):
 
Tides and Currents Weather Stations Pressure Air Temp Water Temp Dewpoint Dewpoint Depression Visibility Wind Speed Wind Dir Waves Ship Positions

Charlotte

Last reported at 2016-Jan-27 13:22 UTC. Time now 2016-Feb-06 03:02 UTC.
Position N 55°56' E 012°46'.
Warning: this ship's position is 9 days out of date.

Length 11 m; draft 2 m.

Type: Fishing. MMSI: 265536200.

Date/timePositionNaut miles runAvg speedWind from/ knotsBaromVisibWave heightAir tempDewpointWater temp
2016-Jan-27 13:22N 55°56' E 012°46'0 0.0
2016-Jan-27 12:33N 55°56' E 012°46'0 0.0
2016-Jan-27 11:33N 55°56' E 012°46'0 0.0
2016-Jan-27 10:33N 55°56' E 012°46'0 0.0
2016-Jan-27 09:33N 55°56' E 012°46'1 1.1
2016-Jan-27 08:33N 55°56' E 012°45'1 0.7
2016-Jan-27 07:33N 55°56' E 012°46'0 0.4
2016-Jan-27 06:33N 55°56' E 012°46'0 0.0
2016-Jan-27 05:33N 55°56' E 012°46'0 0.0
2016-Jan-27 04:33N 55°56' E 012°46'0 0.0
2016-Jan-27 03:34N 55°56' E 012°46'0 0.0
2016-Jan-27 02:33N 55°56' E 012°46'0 0.0
2016-Jan-27 01:34N 55°56' E 012°46'0 0.0
2016-Jan-27 00:33N 55°56' E 012°46'0 0.0
2016-Jan-26 23:33N 55°56' E 012°46'0 0.0
2016-Jan-26 22:33N 55°56' E 012°46'0 0.0
2016-Jan-26 21:34N 55°56' E 012°46'0 0.0
2016-Jan-26 20:33N 55°56' E 012°46'0 0.0
2016-Jan-26 19:33N 55°56' E 012°46'0 0.0
2016-Jan-26 18:34N 55°56' E 012°46'0 0.0
2016-Jan-26 17:33N 55°56' E 012°46'0 0.0
2016-Jan-26 16:33N 55°56' E 012°46'0 0.0
2016-Jan-26 15:33N 55°56' E 012°46'0 0.0
2016-Jan-26 14:34N 55°56' E 012°46'0 0.0
2016-Jan-26 13:33N 55°56' E 012°46'0 0.0
2016-Jan-26 12:33N 55°56' E 012°46'2 2.1
2016-Jan-26 11:33N 55°55' E 012°44'0 0.2
2016-Jan-26 10:33N 55°54' E 012°45'1 0.5
2016-Jan-26 09:33N 55°54' E 012°44'2 2.4
2016-Jan-26 08:33N 55°56' E 012°46'0 0.0
2016-Jan-26 07:33N 55°56' E 012°46'0 0.0
2016-Jan-26 06:33N 55°56' E 012°46'0 0.0
2016-Jan-26 05:33N 55°56' E 012°46'0 0.0
2016-Jan-26 04:33N 55°56' E 012°46'0 0.0
2016-Jan-26 03:33N 55°56' E 012°46'0 0.0
2016-Jan-26 02:33N 55°56' E 012°46'0 0.0
2016-Jan-26 01:33N 55°56' E 012°46'0 0.0
2016-Jan-26 00:33N 55°56' E 012°46'0 0.0
2016-Jan-25 23:33N 55°56' E 012°46'0 0.0
2016-Jan-25 22:31N 55°56' E 012°46'0 0.0
2016-Jan-25 21:33N 55°56' E 012°46'0 0.0
2016-Jan-25 20:33N 55°56' E 012°46'0 0.0
2016-Jan-25 19:33N 55°56' E 012°46'0 0.0
2016-Jan-25 18:33N 55°56' E 012°46'0 0.0
2016-Jan-25 17:33N 55°56' E 012°46'0 0.0
2016-Jan-25 16:33N 55°56' E 012°46'0 0.3
2016-Jan-25 15:33N 55°56' E 012°46'2 1.6
2016-Jan-25 14:33N 55°55' E 012°43'0 0.1
2016-Jan-25 13:33N 55°55' E 012°43'0 0.2
2016-Jan-25 12:33N 55°55' E 012°43'0 0.2
2016-Jan-25 11:33N 55°56' E 012°43'1 1.0
2016-Jan-25 10:33N 55°55' E 012°44'0 0.4
2016-Jan-25 09:33N 55°55' E 012°43'0 0.2
2016-Jan-25 08:34N 55°55' E 012°44'0 0.3
2016-Jan-25 07:33N 55°55' E 012°44'2 1.9
2016-Jan-25 06:33N 55°56' E 012°46'0 0.0
2016-Jan-25 05:33N 55°56' E 012°46'0 0.0
2016-Jan-25 04:33N 55°56' E 012°46'0 0.0
2016-Jan-25 03:33N 55°56' E 012°46'0 0.0
2016-Jan-25 02:33N 55°56' E 012°46'0 0.0
2016-Jan-25 01:33N 55°56' E 012°46'0 0.0
2016-Jan-25 00:33N 55°56' E 012°46'0 0.0
2016-Jan-24 23:33N 55°56' E 012°46'0 0.0
2016-Jan-24 22:34N 55°56' E 012°46'0 0.0
2016-Jan-24 21:33N 55°56' E 012°46'0 0.0
2016-Jan-24 20:33N 55°56' E 012°46'0 0.0
2016-Jan-24 19:33N 55°56' E 012°46'0 0.0
2016-Jan-24 18:33N 55°56' E 012°46'0 0.0
2016-Jan-24 17:33N 55°56' E 012°46'0 0.0
2016-Jan-24 16:33N 55°56' E 012°46'0 0.0
2016-Jan-24 15:33N 55°56' E 012°46'0 0.0
2016-Jan-24 14:33N 55°56' E 012°46'0 0.0
2016-Jan-24 13:33N 55°56' E 012°46'0 0.0
2016-Jan-24 12:33N 55°56' E 012°46'0 0.0
2016-Jan-24 11:33N 55°56' E 012°46'0 0.0
2016-Jan-24 10:33N 55°56' E 012°46'2 1.7
2016-Jan-24 09:33N 55°55' E 012°44'1 1.1
2016-Jan-24 08:33N 55°56' E 012°42'2 1.7
2016-Jan-24 07:34N 55°54' E 012°44'1 1.1
2016-Jan-24 06:34N 55°55' E 012°45'  
Track history (hours):
 
Tides and Currents Weather Stations Pressure Air Temp Water Temp Dewpoint Dewpoint Depression Visibility Wind Speed Wind Dir Waves Ship Positions

Charlotte

Last reported at 2016-Jan-27 13:22 UTC. Time now 2016-Feb-06 03:02 UTC.
Position N 55°56' E 012°46'.
Warning: this ship's position is 9 days out of date.

Length 11 m; draft 2 m.

Type: Fishing. MMSI: 265536200.

Date/timePositionNaut miles runAvg speedWind from/ knotsBaromVisibWave heightAir tempDewpointWater temp
2016-Jan-27 13:22N 55°56' E 012°46'0 0.0
2016-Jan-27 12:33N 55°56' E 012°46'0 0.0
2016-Jan-27 11:33N 55°56' E 012°46'0 0.0
2016-Jan-27 10:33N 55°56' E 012°46'0 0.0
2016-Jan-27 09:33N 55°56' E 012°46'1 1.1
2016-Jan-27 08:33N 55°56' E 012°45'1 0.7
2016-Jan-27 07:33N 55°56' E 012°46'0 0.4
2016-Jan-27 06:33N 55°56' E 012°46'0 0.0
2016-Jan-27 05:33N 55°56' E 012°46'0 0.0
2016-Jan-27 04:33N 55°56' E 012°46'0 0.0
2016-Jan-27 03:34N 55°56' E 012°46'0 0.0
2016-Jan-27 02:33N 55°56' E 012°46'0 0.0
2016-Jan-27 01:34N 55°56' E 012°46'0 0.0
2016-Jan-27 00:33N 55°56' E 012°46'0 0.0
2016-Jan-26 23:33N 55°56' E 012°46'0 0.0
2016-Jan-26 22:33N 55°56' E 012°46'0 0.0
2016-Jan-26 21:34N 55°56' E 012°46'0 0.0
2016-Jan-26 20:33N 55°56' E 012°46'0 0.0
2016-Jan-26 19:33N 55°56' E 012°46'0 0.0
2016-Jan-26 18:34N 55°56' E 012°46'0 0.0
2016-Jan-26 17:33N 55°56' E 012°46'0 0.0
2016-Jan-26 16:33N 55°56' E 012°46'0 0.0
2016-Jan-26 15:33N 55°56' E 012°46'0 0.0
2016-Jan-26 14:34N 55°56' E 012°46'0 0.0
2016-Jan-26 13:33N 55°56' E 012°46'0 0.0
2016-Jan-26 12:33N 55°56' E 012°46'2 2.1
2016-Jan-26 11:33N 55°55' E 012°44'0 0.2
2016-Jan-26 10:33N 55°54' E 012°45'1 0.5
2016-Jan-26 09:33N 55°54' E 012°44'2 2.4
2016-Jan-26 08:33N 55°56' E 012°46'0 0.0
2016-Jan-26 07:33N 55°56' E 012°46'0 0.0
2016-Jan-26 06:33N 55°56' E 012°46'0 0.0
2016-Jan-26 05:33N 55°56' E 012°46'0 0.0
2016-Jan-26 04:33N 55°56' E 012°46'0 0.0
2016-Jan-26 03:33N 55°56' E 012°46'0 0.0
2016-Jan-26 02:33N 55°56' E 012°46'0 0.0
2016-Jan-26 01:33N 55°56' E 012°46'0 0.0
2016-Jan-26 00:33N 55°56' E 012°46'0 0.0
2016-Jan-25 23:33N 55°56' E 012°46'0 0.0
2016-Jan-25 22:31N 55°56' E 012°46'0 0.0
2016-Jan-25 21:33N 55°56' E 012°46'0 0.0
2016-Jan-25 20:33N 55°56' E 012°46'0 0.0
2016-Jan-25 19:33N 55°56' E 012°46'0 0.0
2016-Jan-25 18:33N 55°56' E 012°46'0 0.0
2016-Jan-25 17:33N 55°56' E 012°46'0 0.0
2016-Jan-25 16:33N 55°56' E 012°46'0 0.3
2016-Jan-25 15:33N 55°56' E 012°46'2 1.6
2016-Jan-25 14:33N 55°55' E 012°43'0 0.1
2016-Jan-25 13:33N 55°55' E 012°43'0 0.2
2016-Jan-25 12:33N 55°55' E 012°43'0 0.2
2016-Jan-25 11:33N 55°56' E 012°43'1 1.0
2016-Jan-25 10:33N 55°55' E 012°44'0 0.4
2016-Jan-25 09:33N 55°55' E 012°43'0 0.2
2016-Jan-25 08:34N 55°55' E 012°44'0 0.3
2016-Jan-25 07:33N 55°55' E 012°44'2 1.9
2016-Jan-25 06:33N 55°56' E 012°46'0 0.0
2016-Jan-25 05:33N 55°56' E 012°46'0 0.0
2016-Jan-25 04:33N 55°56' E 012°46'0 0.0
2016-Jan-25 03:33N 55°56' E 012°46'0 0.0
2016-Jan-25 02:33N 55°56' E 012°46'0 0.0
2016-Jan-25 01:33N 55°56' E 012°46'0 0.0
2016-Jan-25 00:33N 55°56' E 012°46'0 0.0
2016-Jan-24 23:33N 55°56' E 012°46'0 0.0
2016-Jan-24 22:34N 55°56' E 012°46'0 0.0
2016-Jan-24 21:33N 55°56' E 012°46'0 0.0
2016-Jan-24 20:33N 55°56' E 012°46'0 0.0
2016-Jan-24 19:33N 55°56' E 012°46'0 0.0
2016-Jan-24 18:33N 55°56' E 012°46'0 0.0
2016-Jan-24 17:33N 55°56' E 012°46'0 0.0
2016-Jan-24 16:33N 55°56' E 012°46'0 0.0
2016-Jan-24 15:33N 55°56' E 012°46'0 0.0
2016-Jan-24 14:33N 55°56' E 012°46'0 0.0
2016-Jan-24 13:33N 55°56' E 012°46'0 0.0
2016-Jan-24 12:33N 55°56' E 012°46'0 0.0
2016-Jan-24 11:33N 55°56' E 012°46'0 0.0
2016-Jan-24 10:33N 55°56' E 012°46'2 1.7
2016-Jan-24 09:33N 55°55' E 012°44'1 1.1
2016-Jan-24 08:33N 55°56' E 012°42'2 1.7
2016-Jan-24 07:34N 55°54' E 012°44'1 1.1
2016-Jan-24 06:34N 55°55' E 012°45'  

Dump ship's entire track history